createdAt,value
2022-12-25T00:01:52.150Z,10.45
2022-12-25T00:04:19.301Z,11.25
2022-12-25T00:06:46.600Z,8.20
2022-12-25T00:09:13.944Z,10.75
2022-12-25T00:11:41.093Z,7.25
2022-12-25T00:14:08.325Z,7.38
2022-12-25T00:16:35.661Z,7.22
2022-12-25T00:19:02.852Z,6.70
2022-12-25T00:21:30.304Z,4.82
2022-12-25T00:23:58.921Z,5.55
2022-12-25T00:26:26.795Z,5.05
2022-12-25T00:28:54.861Z,3.72
2022-12-25T00:31:22.521Z,4.28
2022-12-25T00:33:50.733Z,4.15
2022-12-25T00:36:19.157Z,4.28
2022-12-25T00:38:46.782Z,5.07
2022-12-25T00:41:15.717Z,2.97
2022-12-25T00:43:43.061Z,2.63
2022-12-25T00:46:11.219Z,2.92
2022-12-25T00:48:38.989Z,3.55
2022-12-25T00:51:07.390Z,3.03
2022-12-25T00:53:34.746Z,4.85
2022-12-25T00:56:03.596Z,3.63
2022-12-25T00:58:31.573Z,2.13
2022-12-25T01:00:58.881Z,1.83
2022-12-25T01:03:26.156Z,2.35
2022-12-25T01:06:00.589Z,2.05
2022-12-25T01:08:28.193Z,1.27
2022-12-25T01:10:56.352Z,1.58
2022-12-25T01:13:23.709Z,1.08
2022-12-25T01:15:52.281Z,1.30
2022-12-25T01:18:19.905Z,3.20
2022-12-25T01:20:47.430Z,1.70
2022-12-25T01:23:14.696Z,1.42
2022-12-25T01:25:42.369Z,1.80
2022-12-25T01:28:09.571Z,1.50
2022-12-25T01:30:36.755Z,1.25
2022-12-25T01:33:03.937Z,2.55
2022-12-25T01:35:31.141Z,1.30
2022-12-25T01:37:58.400Z,2.83
2022-12-25T01:40:25.690Z,1.45
2022-12-25T01:42:52.830Z,2.50
2022-12-25T01:45:23.140Z,2.10
2022-12-25T01:47:50.607Z,1.20
2022-12-25T01:50:17.937Z,1.30
2022-12-25T01:52:45.246Z,2.13
2022-12-25T01:55:12.647Z,1.35
2022-12-25T01:57:40.341Z,1.25
2022-12-25T02:00:08.478Z,1.48
2022-12-25T02:02:36.130Z,2.40
2022-12-25T02:05:06.535Z,2.15
2022-12-25T02:07:34.586Z,1.33
2022-12-25T02:10:01.747Z,1.27
2022-12-25T02:12:30.486Z,0.90
2022-12-25T02:15:04.960Z,1.92
2022-12-25T02:17:45.997Z,1.58
2022-12-25T02:20:31.830Z,1.20
2022-12-25T02:23:13.761Z,0.80
2022-12-25T02:25:54.278Z,1.75
2022-12-25T02:28:36.840Z,0.93
2022-12-25T02:31:30.563Z,1.52
2022-12-25T02:34:04.623Z,0.70
2022-12-25T02:36:36.387Z,0.65
2022-12-25T02:39:25.555Z,0.70
2022-12-25T02:41:54.736Z,2.47
2022-12-25T02:44:42.591Z,0.50
2022-12-25T02:47:29.629Z,1.55
2022-12-25T02:50:16.009Z,0.65
2022-12-25T02:53:03.179Z,1.00
2022-12-25T02:55:52.327Z,1.00
2022-12-25T02:58:41.543Z,2.78
2022-12-25T03:01:39.126Z,1.50
2022-12-25T03:04:26.516Z,1.35
2022-12-25T03:07:02.740Z,1.63
2022-12-25T03:09:53.065Z,0.52
2022-12-25T03:12:35.241Z,2.17
2022-12-25T03:15:21.521Z,0.93
2022-12-25T03:17:48.872Z,0.93
2022-12-25T03:20:34.711Z,0.90
2022-12-25T03:23:40.486Z,2.22
2022-12-25T03:26:26.776Z,1.02
2022-12-25T03:28:53.981Z,1.27
2022-12-25T03:31:26.617Z,0.77
2022-12-25T03:34:20.106Z,0.98
2022-12-25T03:36:52.704Z,1.33
2022-12-25T03:40:01.841Z,3.50
2022-12-25T03:43:07.034Z,1.60
2022-12-25T03:46:01.390Z,0.90
2022-12-25T03:48:48.385Z,1.45
2022-12-25T03:51:37.119Z,1.13
2022-12-25T03:54:25.113Z,2.65
2022-12-25T03:57:11.182Z,0.73
2022-12-25T03:59:57.335Z,2.38
2022-12-25T04:02:43.276Z,1.17
2022-12-25T04:05:29.088Z,1.30
2022-12-25T04:08:15.099Z,1.15
2022-12-25T04:11:00.971Z,1.55
2022-12-25T04:13:46.905Z,1.45
2022-12-25T04:16:32.869Z,1.23
2022-12-25T04:19:18.733Z,4.20
2022-12-25T04:22:04.705Z,2.47
2022-12-25T04:24:50.656Z,1.45
2022-12-25T04:27:36.579Z,3.67
2022-12-25T04:30:22.761Z,1.88
2022-12-25T04:33:08.537Z,2.22
2022-12-25T04:35:54.614Z,1.77
2022-12-25T04:38:22.335Z,4.60
2022-12-25T04:40:49.521Z,2.60
2022-12-25T04:43:16.747Z,2.30
2022-12-25T04:45:43.951Z,1.20
2022-12-25T04:48:11.087Z,3.35
2022-12-25T04:50:38.247Z,1.92
2022-12-25T04:53:05.625Z,1.40
2022-12-25T04:55:32.818Z,1.88
2022-12-25T04:57:59.975Z,1.48
2022-12-25T05:00:27.127Z,2.53
2022-12-25T05:02:54.500Z,2.10
2022-12-25T05:05:21.785Z,1.60
2022-12-25T05:07:48.958Z,1.83
2022-12-25T05:10:16.188Z,1.27
2022-12-25T05:12:43.589Z,3.03
2022-12-25T05:15:10.982Z,1.45
2022-12-25T05:17:38.172Z,1.27
2022-12-25T05:20:06.393Z,1.33
2022-12-25T05:22:33.628Z,3.28
2022-12-25T05:25:00.770Z,1.13
2022-12-25T05:27:27.898Z,2.60
2022-12-25T05:29:55.297Z,1.20
2022-12-25T05:32:22.431Z,1.65
2022-12-25T05:34:49.597Z,0.90
2022-12-25T05:37:16.735Z,1.35
2022-12-25T05:39:43.922Z,1.30
2022-12-25T05:42:11.069Z,1.73
2022-12-25T05:44:38.220Z,1.10
2022-12-25T05:47:05.616Z,2.00
2022-12-25T05:49:32.816Z,1.95
2022-12-25T05:51:59.998Z,1.83
2022-12-25T05:54:27.157Z,1.65
2022-12-25T05:56:54.308Z,1.38
2022-12-25T05:59:21.433Z,2.13
2022-12-25T06:01:48.680Z,2.28
2022-12-25T06:04:15.969Z,3.55
2022-12-25T06:06:43.198Z,2.10
2022-12-25T06:09:12.191Z,2.60
2022-12-25T06:11:39.730Z,2.38
2022-12-25T06:14:06.974Z,4.38
2022-12-25T06:16:37.958Z,1.15
2022-12-25T06:19:05.415Z,2.20
2022-12-25T06:21:33.013Z,2.53
2022-12-25T06:24:00.620Z,1.73
2022-12-25T06:26:28.448Z,3.70
2022-12-25T06:28:55.692Z,2.47
2022-12-25T06:31:24.137Z,2.88
2022-12-25T06:33:51.315Z,2.72
2022-12-25T06:36:20.331Z,2.15
2022-12-25T06:38:47.906Z,1.30
2022-12-25T06:41:17.270Z,1.55
2022-12-25T06:43:44.404Z,1.27
2022-12-25T06:46:12.795Z,2.22
2022-12-25T06:48:41.313Z,2.10
2022-12-25T06:51:08.831Z,2.58
2022-12-25T06:53:39.733Z,2.28
2022-12-25T06:56:09.392Z,2.53
2022-12-25T06:58:36.616Z,2.03
2022-12-25T07:01:15.338Z,2.83
2022-12-25T07:03:44.160Z,2.80
2022-12-25T07:06:11.433Z,2.85
2022-12-25T07:08:38.673Z,2.97
2022-12-25T07:11:06.944Z,1.92
2022-12-25T07:13:34.303Z,2.08
2022-12-25T07:16:02.260Z,2.30
2022-12-25T07:18:29.739Z,4.13
2022-12-25T07:20:59.358Z,2.15
2022-12-25T07:23:26.992Z,2.67
2022-12-25T07:25:55.045Z,3.50
2022-12-25T07:28:22.223Z,1.65
2022-12-25T07:30:49.526Z,2.60
2022-12-25T07:33:16.733Z,6.57
2022-12-25T07:35:44.142Z,5.80
2022-12-25T07:38:11.427Z,6.45
2022-12-25T07:40:38.958Z,5.38
2022-12-25T07:43:06.195Z,3.97
2022-12-25T07:45:33.486Z,4.72
2022-12-25T07:48:05.305Z,2.85
2022-12-25T07:50:33.406Z,2.53
2022-12-25T07:53:00.658Z,4.93
2022-12-25T07:55:27.798Z,2.85
2022-12-25T07:57:55.078Z,3.72
2022-12-25T08:00:22.467Z,3.58
2022-12-25T08:02:50.512Z,3.13
2022-12-25T08:05:17.806Z,2.30
2022-12-25T08:07:44.948Z,1.75
2022-12-25T08:10:12.239Z,2.53
2022-12-25T08:12:39.406Z,2.92
2022-12-25T08:15:06.823Z,3.55
2022-12-25T08:17:35.333Z,3.58
2022-12-25T08:20:02.540Z,2.30
2022-12-25T08:22:29.852Z,3.28
2022-12-25T08:24:57.000Z,2.55
2022-12-25T08:27:24.155Z,2.50
2022-12-25T08:29:51.316Z,1.75
2022-12-25T08:32:18.479Z,1.60
2022-12-25T08:34:45.651Z,1.50
2022-12-25T08:37:12.801Z,1.38
2022-12-25T08:39:39.998Z,1.90
2022-12-25T08:42:07.151Z,1.67
2022-12-25T08:44:34.339Z,1.67
2022-12-25T08:47:01.501Z,1.85
2022-12-25T08:49:29.190Z,1.67
2022-12-25T08:51:56.563Z,1.08
2022-12-25T08:54:25.257Z,1.10
2022-12-25T08:56:56.147Z,1.20
2022-12-25T08:59:29.313Z,1.15
2022-12-25T09:01:56.607Z,1.50
2022-12-25T09:04:23.889Z,3.75
2022-12-25T09:06:51.212Z,1.50
2022-12-25T09:09:18.415Z,1.17
2022-12-25T09:11:45.581Z,2.78
2022-12-25T09:14:14.239Z,1.08
2022-12-25T09:16:41.457Z,2.50
2022-12-25T09:19:08.630Z,2.55
2022-12-25T09:21:36.885Z,2.85
2022-12-25T09:24:07.136Z,2.28
2022-12-25T09:26:34.405Z,1.15
2022-12-25T09:29:01.728Z,1.17
2022-12-25T09:31:29.017Z,1.88
2022-12-25T09:33:57.902Z,1.25
2022-12-25T09:36:25.616Z,1.83
2022-12-25T09:38:53.129Z,1.08
2022-12-25T09:41:29.357Z,1.40
2022-12-25T09:44:02.637Z,4.63
2022-12-25T09:46:37.306Z,3.05
2022-12-25T09:49:13.940Z,1.70
2022-12-25T09:51:41.684Z,3.80
2022-12-25T09:54:13.898Z,1.60
2022-12-25T09:56:41.004Z,1.95
2022-12-25T09:59:14.828Z,1.75
2022-12-25T10:01:45.639Z,1.50
2022-12-25T10:04:34.805Z,0.95
2022-12-25T10:07:09.357Z,1.40
2022-12-25T10:09:56.738Z,1.30
2022-12-25T10:12:32.915Z,1.50
2022-12-25T10:15:18.802Z,1.30
2022-12-25T10:18:11.657Z,2.20
2022-12-25T10:20:41.859Z,1.70
2022-12-25T10:23:18.672Z,2.90
2022-12-25T10:25:46.005Z,1.15
2022-12-25T10:28:14.659Z,3.40
2022-12-25T10:30:43.627Z,1.20
2022-12-25T10:33:16.924Z,1.77
2022-12-25T10:35:44.797Z,1.30
2022-12-25T10:38:14.545Z,2.15
2022-12-25T10:40:41.854Z,2.50
2022-12-25T10:43:12.335Z,1.92
2022-12-25T10:45:49.846Z,1.25
2022-12-25T10:48:22.129Z,1.15
2022-12-25T10:50:49.545Z,1.10
2022-12-25T10:53:21.736Z,1.50
2022-12-25T10:55:55.940Z,0.93
2022-12-25T10:58:23.222Z,1.50
2022-12-25T11:01:06.852Z,2.90
2022-12-25T11:03:35.453Z,1.40
2022-12-25T11:06:02.960Z,1.27
2022-12-25T11:08:31.029Z,1.55
2022-12-25T11:11:00.024Z,2.03
2022-12-25T11:13:28.938Z,1.48
2022-12-25T11:16:15.558Z,1.13
2022-12-25T11:18:47.694Z,2.15
2022-12-25T11:21:16.450Z,1.60
2022-12-25T11:23:48.038Z,2.75
2022-12-25T11:26:15.412Z,1.05
2022-12-25T11:28:43.568Z,1.02
2022-12-25T11:31:14.154Z,1.58
2022-12-25T11:33:52.582Z,1.63
2022-12-25T11:36:39.990Z,0.60
2022-12-25T11:39:33.579Z,3.60
2022-12-25T11:42:17.040Z,1.17
2022-12-25T11:44:52.781Z,1.20
2022-12-25T11:47:29.048Z,1.00
2022-12-25T11:50:00.725Z,1.17
2022-12-25T11:52:29.958Z,2.25
2022-12-25T11:54:59.400Z,1.10
2022-12-25T11:57:27.525Z,1.25
2022-12-25T11:59:58.357Z,1.92
2022-12-25T12:02:25.738Z,1.48
2022-12-25T12:04:58.246Z,1.38
2022-12-25T12:07:27.803Z,1.15
2022-12-25T12:10:27.530Z,1.70
2022-12-25T12:13:12.590Z,1.17
2022-12-25T12:15:44.624Z,1.40
2022-12-25T12:18:17.904Z,1.38
2022-12-25T12:20:45.157Z,1.60
2022-12-25T12:23:15.806Z,1.58
2022-12-25T12:25:43.881Z,1.63
2022-12-25T12:28:14.875Z,1.20
2022-12-25T12:30:42.171Z,1.25
2022-12-25T12:33:18.916Z,1.23
2022-12-25T12:35:46.116Z,1.33
2022-12-25T12:38:13.250Z,1.10
2022-12-25T12:40:43.497Z,1.40
2022-12-25T12:43:29.651Z,1.52
2022-12-25T12:45:58.724Z,1.95
2022-12-25T12:48:27.050Z,1.42
2022-12-25T12:51:08.381Z,1.80
2022-12-25T12:53:35.737Z,1.40
2022-12-25T12:56:10.317Z,2.50
2022-12-25T12:58:38.678Z,1.90
2022-12-25T13:01:09.035Z,3.55
2022-12-25T13:03:55.218Z,3.33
2022-12-25T13:06:27.978Z,1.52
2022-12-25T13:09:10.195Z,1.60
2022-12-25T13:11:40.987Z,1.90
2022-12-25T13:14:14.165Z,1.33
2022-12-25T13:16:42.975Z,1.67
2022-12-25T13:19:14.420Z,1.33
2022-12-25T13:21:41.601Z,2.40
2022-12-25T13:24:19.791Z,1.38
2022-12-25T13:26:46.969Z,2.80
2022-12-25T13:29:34.023Z,3.13
2022-12-25T13:32:02.391Z,1.70
2022-12-25T13:34:32.686Z,1.60
2022-12-25T13:37:00.905Z,3.72
2022-12-25T13:39:28.302Z,2.08
2022-12-25T13:42:11.026Z,2.28
2022-12-25T13:44:46.810Z,1.92
2022-12-25T13:47:18.136Z,1.38
2022-12-25T13:49:45.322Z,1.75
2022-12-25T13:52:13.557Z,1.90
2022-12-25T13:54:41.245Z,1.50
2022-12-25T13:57:13.174Z,3.78
2022-12-25T13:59:40.353Z,2.95
2022-12-25T14:02:13.353Z,1.75
2022-12-25T14:04:44.815Z,1.95
2022-12-25T14:07:12.393Z,1.98
2022-12-25T14:09:40.907Z,1.90
2022-12-25T14:12:12.863Z,1.90
2022-12-25T14:14:42.073Z,1.70
2022-12-25T14:17:11.233Z,1.30
2022-12-25T14:19:38.554Z,1.83
2022-12-25T14:22:10.958Z,2.28
2022-12-25T14:24:38.975Z,1.70
2022-12-25T14:27:08.082Z,1.63
2022-12-25T14:29:40.057Z,1.60
2022-12-25T14:32:08.111Z,1.50
2022-12-25T14:34:35.362Z,1.33
2022-12-25T14:37:04.011Z,1.42
2022-12-25T14:39:35.653Z,2.55
2022-12-25T14:42:12.378Z,1.45
2022-12-25T14:44:40.755Z,2.58
2022-12-25T14:47:18.627Z,1.60
2022-12-25T14:49:46.258Z,1.60
2022-12-25T14:52:19.621Z,1.80
2022-12-25T14:54:48.557Z,1.40
2022-12-25T14:57:20.623Z,2.38
2022-12-25T14:59:47.890Z,2.42
2022-12-25T15:02:19.447Z,2.83
2022-12-25T15:04:46.813Z,1.95
2022-12-25T15:07:31.034Z,2.50
2022-12-25T15:10:27.103Z,2.78
2022-12-25T15:12:45.570Z,4.10
2022-12-25T15:15:12.823Z,3.15
2022-12-25T15:17:40.117Z,3.70
2022-12-25T15:20:11.149Z,3.75
2022-12-25T15:23:02.212Z,3.10
2022-12-25T15:25:25.532Z,1.80
2022-12-25T15:27:52.885Z,2.22
2022-12-25T15:30:20.155Z,2.33
2022-12-25T15:32:47.366Z,1.90
2022-12-25T15:35:16.878Z,2.55
2022-12-25T15:37:44.060Z,2.03
2022-12-25T15:40:15.181Z,2.42
2022-12-25T15:42:44.884Z,1.55
2022-12-25T15:45:17.909Z,2.13
2022-12-25T15:47:45.262Z,2.20
2022-12-25T15:50:12.421Z,1.77
2022-12-25T15:52:39.628Z,1.55
2022-12-25T15:55:07.591Z,2.72
2022-12-25T15:57:35.176Z,2.25
2022-12-25T16:00:03.215Z,2.90
2022-12-25T16:02:30.539Z,1.40
2022-12-25T16:04:57.766Z,3.67
2022-12-25T16:07:25.828Z,3.25
2022-12-25T16:09:52.979Z,3.58
2022-12-25T16:12:20.810Z,4.03
2022-12-25T16:14:48.061Z,3.67
2022-12-25T16:17:16.245Z,3.05
2022-12-25T16:19:44.885Z,5.15
2022-12-25T16:22:21.681Z,5.15
2022-12-25T16:24:49.201Z,3.30
2022-12-25T16:27:16.522Z,3.70
2022-12-25T16:29:43.893Z,4.60
2022-12-25T16:32:14.816Z,4.40
2022-12-25T16:34:42.333Z,3.70
2022-12-25T16:37:09.557Z,3.83
2022-12-25T16:39:37.659Z,4.60
2022-12-25T16:42:04.902Z,3.58
2022-12-25T16:44:32.084Z,3.92
2022-12-25T16:46:59.325Z,4.22
2022-12-25T16:49:26.534Z,5.30
2022-12-25T16:51:53.764Z,4.68
2022-12-25T16:54:20.934Z,6.65
2022-12-25T16:56:48.125Z,4.43
2022-12-25T16:59:15.285Z,6.03
2022-12-25T17:01:43.471Z,7.07
2022-12-25T17:04:10.880Z,8.65
2022-12-25T17:06:38.427Z,8.25
2022-12-25T17:09:05.890Z,7.50
2022-12-25T17:11:33.068Z,8.13
2022-12-25T17:14:02.460Z,12.30
2022-12-25T17:16:32.076Z,13.88
2022-12-25T17:19:04.339Z,11.73
2022-12-25T17:21:35.414Z,10.63
2022-12-25T17:24:04.484Z,13.05
2022-12-25T17:26:32.657Z,9.18
2022-12-25T17:29:00.120Z,12.35
2022-12-25T17:31:27.349Z,11.68
2022-12-25T17:33:54.625Z,10.95
2022-12-25T17:36:22.870Z,13.70
2022-12-25T17:38:50.155Z,10.38
2022-12-25T17:41:18.367Z,11.52
2022-12-25T17:43:45.988Z,12.63
2022-12-25T17:46:23.497Z,7.78
2022-12-25T17:48:51.496Z,9.02
2022-12-25T17:51:21.458Z,9.10
2022-12-25T17:53:49.851Z,10.38
2022-12-25T17:56:17.972Z,10.43
2022-12-25T17:58:45.564Z,10.32
2022-12-25T18:01:14.128Z,10.07
2022-12-25T18:03:41.889Z,9.02
2022-12-25T18:06:12.096Z,9.50
2022-12-25T18:08:40.261Z,9.38
2022-12-25T18:11:09.583Z,9.68
2022-12-25T18:13:37.271Z,8.38
2022-12-25T18:16:05.329Z,8.55
2022-12-25T18:18:32.876Z,9.02
2022-12-25T18:21:00.317Z,9.25
2022-12-25T18:23:27.483Z,9.57
2022-12-25T18:25:54.695Z,8.20
2022-12-25T18:28:21.853Z,7.47
2022-12-25T18:30:48.980Z,7.65
2022-12-25T18:33:16.123Z,6.75
2022-12-25T18:35:44.139Z,6.47
2022-12-25T18:38:11.803Z,6.25
2022-12-25T18:40:42.833Z,6.65
2022-12-25T18:43:10.388Z,6.00
2022-12-25T18:45:37.788Z,7.35
2022-12-25T18:48:06.251Z,6.93
2022-12-25T18:50:33.927Z,6.43
2022-12-25T18:53:01.282Z,6.88
2022-12-25T18:55:28.607Z,6.20
2022-12-25T18:57:55.816Z,9.13
2022-12-25T19:00:23.319Z,6.65
2022-12-25T19:02:50.680Z,9.77
2022-12-25T19:05:18.125Z,8.43
2022-12-25T19:07:45.278Z,10.18
2022-12-25T19:10:12.517Z,9.75
2022-12-25T19:12:39.793Z,7.38
2022-12-25T19:15:07.384Z,7.38
2022-12-25T19:17:34.610Z,10.15
2022-12-25T19:20:02.053Z,5.93
2022-12-25T19:22:29.399Z,5.93
2022-12-25T19:24:56.695Z,6.65
2022-12-25T19:27:23.932Z,10.23
2022-12-25T19:29:51.197Z,5.68
2022-12-25T19:32:18.404Z,7.40
2022-12-25T19:34:45.615Z,6.00
2022-12-25T19:37:12.890Z,5.50
2022-12-25T19:39:45.946Z,4.45
2022-12-25T19:42:14.235Z,4.85
2022-12-25T19:44:41.508Z,5.03
2022-12-25T19:47:09.686Z,5.88
2022-12-25T19:49:36.863Z,5.55
2022-12-25T19:52:04.031Z,3.67
2022-12-25T19:54:31.227Z,3.63
2022-12-25T19:56:58.584Z,4.28
2022-12-25T19:59:25.791Z,3.53
2022-12-25T20:01:53.188Z,3.45
2022-12-25T20:04:20.437Z,4.32
2022-12-25T20:06:47.660Z,2.88
2022-12-25T20:09:17.919Z,3.17
2022-12-25T20:11:47.869Z,3.95
2022-12-25T20:14:16.384Z,2.88
2022-12-25T20:16:44.179Z,4.13
2022-12-25T20:19:15.003Z,6.93
2022-12-25T20:21:42.387Z,4.32
2022-12-25T20:24:11.065Z,6.05
2022-12-25T20:26:39.075Z,5.55
2022-12-25T20:29:06.298Z,6.60
2022-12-25T20:31:35.267Z,5.32
2022-12-25T20:34:06.754Z,3.95
2022-12-25T20:36:37.323Z,3.67
2022-12-25T20:39:06.370Z,4.70
2022-12-25T20:41:33.500Z,3.60
2022-12-25T20:44:02.096Z,4.65
2022-12-25T20:46:29.473Z,3.72
2022-12-25T20:48:56.701Z,4.05
2022-12-25T20:51:25.104Z,4.95
2022-12-25T20:53:52.708Z,2.85
2022-12-25T20:56:21.090Z,3.78
2022-12-25T20:58:48.268Z,3.22
2022-12-25T21:01:17.184Z,3.00
2022-12-25T21:03:44.965Z,3.05
2022-12-25T21:06:12.372Z,3.13
2022-12-25T21:08:40.950Z,4.20
2022-12-25T21:11:08.322Z,4.82
2022-12-25T21:13:36.704Z,3.05
2022-12-25T21:16:22.999Z,1.95
2022-12-25T21:18:50.908Z,3.13
2022-12-25T21:21:18.156Z,3.60
2022-12-25T21:23:45.752Z,3.90
2022-12-25T21:26:14.493Z,3.70
2022-12-25T21:28:42.031Z,3.13
2022-12-25T21:31:09.465Z,3.67
2022-12-25T21:33:52.017Z,3.13
2022-12-25T21:36:21.311Z,2.60
2022-12-25T21:38:48.578Z,3.35
2022-12-25T21:41:17.117Z,2.50
2022-12-25T21:43:44.404Z,2.35
2022-12-25T21:46:13.066Z,2.85
2022-12-25T21:48:40.838Z,1.90
2022-12-25T21:51:28.500Z,2.92
2022-12-25T21:53:55.704Z,2.72
2022-12-25T21:56:22.905Z,2.45
2022-12-25T21:58:50.096Z,5.22
2022-12-25T22:01:17.540Z,2.35
2022-12-25T22:03:45.073Z,2.25
2022-12-25T22:06:31.373Z,1.92
2022-12-25T22:08:58.503Z,1.95
2022-12-25T22:11:44.948Z,2.97
2022-12-25T22:14:51.446Z,2.70
2022-12-25T22:17:48.070Z,2.63
2022-12-25T22:20:16.668Z,5.55
2022-12-25T22:22:44.126Z,2.63
2022-12-25T22:25:11.833Z,3.38
2022-12-25T22:27:40.418Z,2.17
2022-12-25T22:30:09.414Z,2.35
2022-12-25T22:32:37.223Z,2.72
2022-12-25T22:35:04.662Z,1.92
2022-12-25T22:37:32.021Z,1.80
2022-12-25T22:40:01.221Z,2.20
2022-12-25T22:42:28.560Z,1.75
2022-12-25T22:44:55.664Z,2.15
2022-12-25T22:47:22.806Z,2.03
2022-12-25T22:49:50.325Z,2.58
2022-12-25T22:52:17.659Z,2.05
2022-12-25T22:54:44.833Z,2.65
2022-12-25T22:57:12.049Z,1.90
2022-12-25T22:59:39.311Z,2.42
2022-12-25T23:02:06.662Z,1.90
2022-12-25T23:04:33.957Z,1.42
2022-12-25T23:07:02.040Z,1.92
2022-12-25T23:09:29.288Z,3.97
2022-12-25T23:11:57.243Z,2.85
2022-12-25T23:14:40.641Z,2.35
2022-12-25T23:17:31.032Z,2.00
2022-12-25T23:20:18.160Z,2.97
2022-12-25T23:23:03.943Z,5.03
2022-12-25T23:25:50.014Z,3.08
2022-12-25T23:28:40.198Z,2.25
2022-12-25T23:31:07.940Z,2.92
2022-12-25T23:33:35.128Z,1.95
2022-12-25T23:36:02.293Z,2.22
2022-12-25T23:38:29.445Z,2.67
2022-12-25T23:40:56.638Z,1.95
2022-12-25T23:43:23.822Z,2.33
2022-12-25T23:45:50.965Z,1.92
2022-12-25T23:48:18.113Z,3.00
2022-12-25T23:50:45.249Z,3.40
2022-12-25T23:53:12.446Z,2.47
2022-12-25T23:55:42.165Z,3.15
2022-12-25T23:58:09.310Z,2.50
